sensor_id;sensor_type;location;lat;lon;timestamp;P1;durP1;ratioP1;P2;durP2;ratioP2
11964;SDS011;6042;41.326;19.826;2024-01-15T00:01:31;2.03;;;1.37;;
11964;SDS011;6042;41.326;19.826;2024-01-15T00:04:01;2.00;;;1.40;;
11964;SDS011;6042;41.326;19.826;2024-01-15T00:06:30;4.20;;;1.63;;
11964;SDS011;6042;41.326;19.826;2024-01-15T00:09:02;1.80;;;1.20;;
11964;SDS011;6042;41.326;19.826;2024-01-15T00:11:30;3.20;;;1.47;;
11964;SDS011;6042;41.326;19.826;2024-01-15T00:13:59;3.77;;;1.50;;
11964;SDS011;6042;41.326;19.826;2024-01-15T00:16:27;1.93;;;1.60;;
11964;SDS011;6042;41.326;19.826;2024-01-15T00:18:55;3.23;;;1.70;;
11964;SDS011;6042;41.326;19.826;2024-01-15T00:21:26;1.73;;;1.30;;
11964;SDS011;6042;41.326;19.826;2024-01-15T00:23:54;3.40;;;1.80;;
11964;SDS011;6042;41.326;19.826;2024-01-15T00:26:25;1.27;;;1.17;;
11964;SDS011;6042;41.326;19.826;2024-01-15T00:28:54;3.73;;;1.50;;
11964;SDS011;6042;41.326;19.826;2024-01-15T00:31:22;1.87;;;1.60;;
11964;SDS011;6042;41.326;19.826;2024-01-15T00:33:51;1.73;;;1.30;;
11964;SDS011;6042;41.326;19.826;2024-01-15T00:36:20;1.83;;;1.40;;
11964;SDS011;6042;41.326;19.826;2024-01-15T00:38:50;3.50;;;1.30;;
11964;SDS011;6042;41.326;19.826;2024-01-15T00:41:18;3.53;;;1.53;;
11964;SDS011;6042;41.326;19.826;2024-01-15T00:43:47;1.80;;;1.23;;
11964;SDS011;6042;41.326;19.826;2024-01-15T00:46:15;2.40;;;1.20;;
11964;SDS011;6042;41.326;19.826;2024-01-15T00:48:44;1.93;;;1.27;;
11964;SDS011;6042;41.326;19.826;2024-01-15T00:51:13;2.83;;;2.00;;
11964;SDS011;6042;41.326;19.826;2024-01-15T00:53:42;1.60;;;1.30;;
11964;SDS011;6042;41.326;19.826;2024-01-15T00:56:13;3.77;;;1.73;;
11964;SDS011;6042;41.326;19.826;2024-01-15T00:58:41;2.20;;;1.40;;
11964;SDS011;6042;41.326;19.826;2024-01-15T01:01:10;1.40;;;1.30;;
11964;SDS011;6042;41.326;19.826;2024-01-15T01:03:38;1.70;;;1.50;;
11964;SDS011;6042;41.326;19.826;2024-01-15T01:06:08;3.57;;;1.30;;
11964;SDS011;6042;41.326;19.826;2024-01-15T01:08:37;1.20;;;1.10;;
11964;SDS011;6042;41.326;19.826;2024-01-15T01:11:06;2.63;;;1.27;;
11964;SDS011;6042;41.326;19.826;2024-01-15T01:13:36;1.50;;;1.40;;
11964;SDS011;6042;41.326;19.826;2024-01-15T01:16:04;1.00;;;0.97;;
11964;SDS011;6042;41.326;19.826;2024-01-15T01:18:33;1.63;;;1.20;;
11964;SDS011;6042;41.326;19.826;2024-01-15T01:21:01;1.30;;;1.10;;
11964;SDS011;6042;41.326;19.826;2024-01-15T01:23:30;2.00;;;1.17;;
11964;SDS011;6042;41.326;19.826;2024-01-15T01:25:59;3.27;;;1.50;;
11964;SDS011;6042;41.326;19.826;2024-01-15T01:28:27;3.03;;;1.40;;
11964;SDS011;6042;41.326;19.826;2024-01-15T01:30:57;1.40;;;1.10;;
11964;SDS011;6042;41.326;19.826;2024-01-15T01:33:26;1.77;;;1.20;;
11964;SDS011;6042;41.326;19.826;2024-01-15T01:35:54;1.07;;;1.03;;
11964;SDS011;6042;41.326;19.826;2024-01-15T01:38:23;1.67;;;1.20;;
11964;SDS011;6042;41.326;19.826;2024-01-15T01:40:51;2.83;;;1.33;;
11964;SDS011;6042;41.326;19.826;2024-01-15T01:43:19;4.50;;;1.30;;
11964;SDS011;6042;41.326;19.826;2024-01-15T01:45:48;1.90;;;1.33;;
11964;SDS011;6042;41.326;19.826;2024-01-15T01:48:18;2.57;;;1.10;;
11964;SDS011;6042;41.326;19.826;2024-01-15T01:50:47;1.23;;;0.90;;
11964;SDS011;6042;41.326;19.826;2024-01-15T01:53:15;2.70;;;1.00;;
11964;SDS011;6042;41.326;19.826;2024-01-15T01:55:44;1.23;;;1.13;;
11964;SDS011;6042;41.326;19.826;2024-01-15T01:58:13;1.23;;;1.13;;
11964;SDS011;6042;41.326;19.826;2024-01-15T02:00:42;1.97;;;1.30;;
11964;SDS011;6042;41.326;19.826;2024-01-15T02:03:11;2.13;;;1.40;;
11964;SDS011;6042;41.326;19.826;2024-01-15T02:05:41;1.40;;;1.30;;
11964;SDS011;6042;41.326;19.826;2024-01-15T02:08:13;1.43;;;1.30;;
11964;SDS011;6042;41.326;19.826;2024-01-15T02:10:41;1.20;;;1.10;;
11964;SDS011;6042;41.326;19.826;2024-01-15T02:13:10;2.17;;;1.43;;
11964;SDS011;6042;41.326;19.826;2024-01-15T02:15:38;1.23;;;1.13;;
11964;SDS011;6042;41.326;19.826;2024-01-15T02:18:07;2.30;;;1.03;;
11964;SDS011;6042;41.326;19.826;2024-01-15T02:20:36;1.67;;;1.30;;
11964;SDS011;6042;41.326;19.826;2024-01-15T02:23:09;1.23;;;1.00;;
11964;SDS011;6042;41.326;19.826;2024-01-15T02:25:38;1.37;;;1.00;;
11964;SDS011;6042;41.326;19.826;2024-01-15T02:28:08;1.30;;;1.20;;
11964;SDS011;6042;41.326;19.826;2024-01-15T02:30:38;1.50;;;1.03;;
11964;SDS011;6042;41.326;19.826;2024-01-15T02:33:07;1.87;;;1.47;;
11964;SDS011;6042;41.326;19.826;2024-01-15T02:35:37;1.03;;;0.93;;
11964;SDS011;6042;41.326;19.826;2024-01-15T02:38:05;1.10;;;1.00;;
11964;SDS011;6042;41.326;19.826;2024-01-15T02:40:36;1.30;;;1.10;;
11964;SDS011;6042;41.326;19.826;2024-01-15T02:43:06;1.60;;;1.10;;
11964;SDS011;6042;41.326;19.826;2024-01-15T02:45:38;1.40;;;1.20;;
11964;SDS011;6042;41.326;19.826;2024-01-15T02:48:07;2.17;;;1.97;;
11964;SDS011;6042;41.326;19.826;2024-01-15T02:50:35;1.83;;;1.43;;
11964;SDS011;6042;41.326;19.826;2024-01-15T02:53:04;4.37;;;1.43;;
11964;SDS011;6042;41.326;19.826;2024-01-15T02:55:33;2.17;;;1.30;;
11964;SDS011;6042;41.326;19.826;2024-01-15T02:58:04;1.20;;;1.10;;
11964;SDS011;6042;41.326;19.826;2024-01-15T03:00:32;1.40;;;1.30;;
11964;SDS011;6042;41.326;19.826;2024-01-15T03:03:01;1.00;;;0.90;;
11964;SDS011;6042;41.326;19.826;2024-01-15T03:05:29;1.30;;;1.10;;
11964;SDS011;6042;41.326;19.826;2024-01-15T03:07:58;1.27;;;1.03;;
11964;SDS011;6042;41.326;19.826;2024-01-15T03:10:26;0.80;;;0.80;;
11964;SDS011;6042;41.326;19.826;2024-01-15T03:12:55;1.13;;;1.03;;
11964;SDS011;6042;41.326;19.826;2024-01-15T03:15:25;1.03;;;0.93;;
11964;SDS011;6042;41.326;19.826;2024-01-15T03:17:53;1.50;;;0.90;;
11964;SDS011;6042;41.326;19.826;2024-01-15T03:20:21;1.67;;;0.80;;
11964;SDS011;6042;41.326;19.826;2024-01-15T03:22:50;0.93;;;0.80;;
11964;SDS011;6042;41.326;19.826;2024-01-15T03:25:18;0.80;;;0.80;;
11964;SDS011;6042;41.326;19.826;2024-01-15T03:27:47;1.53;;;1.20;;
11964;SDS011;6042;41.326;19.826;2024-01-15T03:30:15;0.70;;;0.70;;
11964;SDS011;6042;41.326;19.826;2024-01-15T03:32:45;1.17;;;1.07;;
11964;SDS011;6042;41.326;19.826;2024-01-15T03:35:16;1.20;;;1.10;;
11964;SDS011;6042;41.326;19.826;2024-01-15T03:37:45;0.80;;;0.80;;
11964;SDS011;6042;41.326;19.826;2024-01-15T03:40:13;1.47;;;0.83;;
11964;SDS011;6042;41.326;19.826;2024-01-15T03:42:47;1.00;;;0.90;;
11964;SDS011;6042;41.326;19.826;2024-01-15T03:45:16;0.83;;;0.83;;
11964;SDS011;6042;41.326;19.826;2024-01-15T03:47:46;0.83;;;0.83;;
11964;SDS011;6042;41.326;19.826;2024-01-15T03:50:14;0.77;;;0.77;;
11964;SDS011;6042;41.326;19.826;2024-01-15T03:52:43;0.80;;;0.70;;
11964;SDS011;6042;41.326;19.826;2024-01-15T03:55:11;2.60;;;1.00;;
11964;SDS011;6042;41.326;19.826;2024-01-15T03:57:40;1.90;;;0.90;;
11964;SDS011;6042;41.326;19.826;2024-01-15T04:00:09;0.97;;;0.90;;
11964;SDS011;6042;41.326;19.826;2024-01-15T04:02:38;1.03;;;0.77;;
11964;SDS011;6042;41.326;19.826;2024-01-15T04:05:08;2.77;;;1.10;;
11964;SDS011;6042;41.326;19.826;2024-01-15T04:07:37;0.83;;;0.77;;
11964;SDS011;6042;41.326;19.826;2024-01-15T04:10:06;0.80;;;0.67;;
11964;SDS011;6042;41.326;19.826;2024-01-15T04:12:35;1.70;;;0.77;;
11964;SDS011;6042;41.326;19.826;2024-01-15T04:15:03;1.57;;;0.90;;
11964;SDS011;6042;41.326;19.826;2024-01-15T04:17:32;1.60;;;0.77;;
11964;SDS011;6042;41.326;19.826;2024-01-15T04:20:01;2.87;;;1.00;;
11964;SDS011;6042;41.326;19.826;2024-01-15T04:22:31;2.47;;;0.90;;
11964;SDS011;6042;41.326;19.826;2024-01-15T04:25:01;1.17;;;0.80;;
11964;SDS011;6042;41.326;19.826;2024-01-15T04:27:29;2.30;;;1.00;;
11964;SDS011;6042;41.326;19.826;2024-01-15T04:29:58;1.97;;;0.90;;
11964;SDS011;6042;41.326;19.826;2024-01-15T04:32:27;1.10;;;1.00;;
11964;SDS011;6042;41.326;19.826;2024-01-15T04:34:55;1.07;;;0.80;;
11964;SDS011;6042;41.326;19.826;2024-01-15T04:37:23;1.73;;;0.70;;
11964;SDS011;6042;41.326;19.826;2024-01-15T04:39:53;1.57;;;0.87;;
11964;SDS011;6042;41.326;19.826;2024-01-15T04:42:24;0.80;;;0.80;;
11964;SDS011;6042;41.326;19.826;2024-01-15T04:44:52;1.00;;;0.73;;
11964;SDS011;6042;41.326;19.826;2024-01-15T04:47:21;0.80;;;0.70;;
11964;SDS011;6042;41.326;19.826;2024-01-15T04:49:49;0.67;;;0.67;;
11964;SDS011;6042;41.326;19.826;2024-01-15T04:52:18;4.27;;;1.10;;
11964;SDS011;6042;41.326;19.826;2024-01-15T04:54:47;3.33;;;1.27;;
11964;SDS011;6042;41.326;19.826;2024-01-15T04:57:17;2.47;;;1.03;;
11964;SDS011;6042;41.326;19.826;2024-01-15T04:59:45;0.60;;;0.60;;
11964;SDS011;6042;41.326;19.826;2024-01-15T05:02:13;1.70;;;1.23;;
11964;SDS011;6042;41.326;19.826;2024-01-15T05:04:42;1.00;;;0.67;;
11964;SDS011;6042;41.326;19.826;2024-01-15T05:07:10;1.97;;;1.17;;
11964;SDS011;6042;41.326;19.826;2024-01-15T05:09:39;1.27;;;0.90;;
11964;SDS011;6042;41.326;19.826;2024-01-15T05:12:08;2.63;;;1.27;;
11964;SDS011;6042;41.326;19.826;2024-01-15T05:14:39;1.13;;;0.93;;
11964;SDS011;6042;41.326;19.826;2024-01-15T05:17:07;1.23;;;1.00;;
11964;SDS011;6042;41.326;19.826;2024-01-15T05:19:37;1.90;;;1.27;;
11964;SDS011;6042;41.326;19.826;2024-01-15T05:22:05;2.03;;;1.00;;
11964;SDS011;6042;41.326;19.826;2024-01-15T05:24:34;1.80;;;1.23;;
11964;SDS011;6042;41.326;19.826;2024-01-15T05:27:02;2.33;;;1.20;;
11964;SDS011;6042;41.326;19.826;2024-01-15T05:29:31;1.37;;;0.73;;
11964;SDS011;6042;41.326;19.826;2024-01-15T05:32:01;1.30;;;0.90;;
11964;SDS011;6042;41.326;19.826;2024-01-15T05:34:30;1.10;;;0.90;;
11964;SDS011;6042;41.326;19.826;2024-01-15T05:37:17;0.90;;;0.90;;
11964;SDS011;6042;41.326;19.826;2024-01-15T05:39:50;1.03;;;0.97;;
11964;SDS011;6042;41.326;19.826;2024-01-15T05:42:19;1.33;;;1.23;;
11964;SDS011;6042;41.326;19.826;2024-01-15T05:44:48;1.30;;;1.20;;
11964;SDS011;6042;41.326;19.826;2024-01-15T05:47:17;1.37;;;1.27;;
11964;SDS011;6042;41.326;19.826;2024-01-15T05:49:46;2.80;;;1.20;;
11964;SDS011;6042;41.326;19.826;2024-01-15T05:52:15;3.30;;;1.50;;
11964;SDS011;6042;41.326;19.826;2024-01-15T05:54:44;3.00;;;1.40;;
11964;SDS011;6042;41.326;19.826;2024-01-15T05:57:12;3.20;;;2.00;;
11964;SDS011;6042;41.326;19.826;2024-01-15T05:59:42;2.73;;;1.93;;
11964;SDS011;6042;41.326;19.826;2024-01-15T06:02:12;3.17;;;1.90;;
11964;SDS011;6042;41.326;19.826;2024-01-15T06:04:42;4.40;;;1.80;;
11964;SDS011;6042;41.326;19.826;2024-01-15T06:07:12;3.60;;;2.50;;
11964;SDS011;6042;41.326;19.826;2024-01-15T06:09:41;3.03;;;1.80;;
11964;SDS011;6042;41.326;19.826;2024-01-15T06:12:09;2.10;;;1.90;;
11964;SDS011;6042;41.326;19.826;2024-01-15T06:14:38;2.83;;;2.03;;
11964;SDS011;6042;41.326;19.826;2024-01-15T06:17:07;2.60;;;1.60;;
11964;SDS011;6042;41.326;19.826;2024-01-15T06:19:36;1.67;;;1.47;;
11964;SDS011;6042;41.326;19.826;2024-01-15T06:22:06;2.30;;;1.60;;
11964;SDS011;6042;41.326;19.826;2024-01-15T06:24:35;1.70;;;1.60;;
11964;SDS011;6042;41.326;19.826;2024-01-15T06:27:04;2.53;;;1.13;;
11964;SDS011;6042;41.326;19.826;2024-01-15T06:29:32;1.97;;;1.37;;
11964;SDS011;6042;41.326;19.826;2024-01-15T06:31:59;1.50;;;1.40;;
11964;SDS011;6042;41.326;19.826;2024-01-15T06:34:28;3.20;;;1.60;;
11964;SDS011;6042;41.326;19.826;2024-01-15T06:36:58;1.80;;;1.70;;
11964;SDS011;6042;41.326;19.826;2024-01-15T06:39:28;4.73;;;2.23;;
11964;SDS011;6042;41.326;19.826;2024-01-15T06:41:57;1.83;;;1.57;;
11964;SDS011;6042;41.326;19.826;2024-01-15T06:44:25;2.93;;;1.73;;
11964;SDS011;6042;41.326;19.826;2024-01-15T06:46:54;2.07;;;1.87;;
11964;SDS011;6042;41.326;19.826;2024-01-15T06:49:23;2.80;;;2.30;;
11964;SDS011;6042;41.326;19.826;2024-01-15T06:51:52;9.17;;;2.50;;
11964;SDS011;6042;41.326;19.826;2024-01-15T06:54:21;2.67;;;2.27;;
11964;SDS011;6042;41.326;19.826;2024-01-15T06:56:51;3.80;;;2.30;;
11964;SDS011;6042;41.326;19.826;2024-01-15T06:59:20;10.23;;;3.50;;
11964;SDS011;6042;41.326;19.826;2024-01-15T07:01:48;7.57;;;4.27;;
11964;SDS011;6042;41.326;19.826;2024-01-15T07:04:17;5.50;;;4.00;;
11964;SDS011;6042;41.326;19.826;2024-01-15T07:06:45;5.77;;;4.17;;
11964;SDS011;6042;41.326;19.826;2024-01-15T07:09:15;4.10;;;2.93;;
11964;SDS011;6042;41.326;19.826;2024-01-15T07:11:44;6.87;;;3.30;;
11964;SDS011;6042;41.326;19.826;2024-01-15T07:14:15;8.27;;;4.40;;
11964;SDS011;6042;41.326;19.826;2024-01-15T07:16:46;6.70;;;4.43;;
11964;SDS011;6042;41.326;19.826;2024-01-15T07:19:16;5.90;;;3.80;;
11964;SDS011;6042;41.326;19.826;2024-01-15T07:21:45;42.00;;;22.13;;
11964;SDS011;6042;41.326;19.826;2024-01-15T07:24:13;40.90;;;22.40;;
11964;SDS011;6042;41.326;19.826;2024-01-15T07:26:42;20.50;;;12.87;;
11964;SDS011;6042;41.326;19.826;2024-01-15T07:29:11;13.20;;;8.03;;
11964;SDS011;6042;41.326;19.826;2024-01-15T07:31:43;7.67;;;4.50;;
11964;SDS011;6042;41.326;19.826;2024-01-15T07:34:17;5.07;;;3.93;;
11964;SDS011;6042;41.326;19.826;2024-01-15T07:36:46;4.27;;;3.43;;
11964;SDS011;6042;41.326;19.826;2024-01-15T07:39:14;7.03;;;4.10;;
11964;SDS011;6042;41.326;19.826;2024-01-15T07:41:43;8.40;;;4.03;;
11964;SDS011;6042;41.326;19.826;2024-01-15T07:44:11;5.73;;;3.77;;
11964;SDS011;6042;41.326;19.826;2024-01-15T07:46:41;4.07;;;3.00;;
11964;SDS011;6042;41.326;19.826;2024-01-15T07:49:12;3.60;;;2.47;;
11964;SDS011;6042;41.326;19.826;2024-01-15T07:51:41;3.40;;;2.23;;
11964;SDS011;6042;41.326;19.826;2024-01-15T07:54:10;3.83;;;2.20;;
11964;SDS011;6042;41.326;19.826;2024-01-15T07:56:52;6.93;;;2.43;;
11964;SDS011;6042;41.326;19.826;2024-01-15T07:59:22;4.97;;;2.93;;
11964;SDS011;6042;41.326;19.826;2024-01-15T08:01:52;6.30;;;3.13;;
11964;SDS011;6042;41.326;19.826;2024-01-15T08:04:21;7.37;;;3.53;;
11964;SDS011;6042;41.326;19.826;2024-01-15T08:06:50;4.97;;;3.53;;
11964;SDS011;6042;41.326;19.826;2024-01-15T08:09:33;7.93;;;3.90;;
11964;SDS011;6042;41.326;19.826;2024-01-15T08:12:02;4.63;;;3.30;;
11964;SDS011;6042;41.326;19.826;2024-01-15T08:14:32;3.83;;;3.43;;
11964;SDS011;6042;41.326;19.826;2024-01-15T08:17:03;5.70;;;3.60;;
11964;SDS011;6042;41.326;19.826;2024-01-15T08:19:32;5.77;;;2.80;;
11964;SDS011;6042;41.326;19.826;2024-01-15T08:22:00;5.40;;;2.93;;
11964;SDS011;6042;41.326;19.826;2024-01-15T08:24:29;3.83;;;2.50;;
11964;SDS011;6042;41.326;19.826;2024-01-15T08:26:58;3.33;;;2.60;;
11964;SDS011;6042;41.326;19.826;2024-01-15T08:29:26;5.83;;;4.80;;
11964;SDS011;6042;41.326;19.826;2024-01-15T08:31:55;6.60;;;3.80;;
11964;SDS011;6042;41.326;19.826;2024-01-15T08:34:25;6.73;;;3.50;;
11964;SDS011;6042;41.326;19.826;2024-01-15T08:36:57;5.97;;;3.20;;
11964;SDS011;6042;41.326;19.826;2024-01-15T08:39:25;4.17;;;3.40;;
11964;SDS011;6042;41.326;19.826;2024-01-15T08:41:54;3.40;;;3.10;;
11964;SDS011;6042;41.326;19.826;2024-01-15T08:44:22;8.17;;;4.43;;
11964;SDS011;6042;41.326;19.826;2024-01-15T08:46:51;4.80;;;4.10;;
11964;SDS011;6042;41.326;19.826;2024-01-15T08:49:20;6.53;;;4.40;;
11964;SDS011;6042;41.326;19.826;2024-01-15T08:51:50;7.53;;;4.07;;
11964;SDS011;6042;41.326;19.826;2024-01-15T08:54:18;7.67;;;4.50;;
11964;SDS011;6042;41.326;19.826;2024-01-15T08:56:47;9.90;;;4.83;;
11964;SDS011;6042;41.326;19.826;2024-01-15T08:59:15;8.50;;;6.07;;
11964;SDS011;6042;41.326;19.826;2024-01-15T09:01:51;8.47;;;6.73;;
11964;SDS011;6042;41.326;19.826;2024-01-15T09:04:20;16.43;;;12.23;;
11964;SDS011;6042;41.326;19.826;2024-01-15T09:06:49;11.53;;;9.60;;
11964;SDS011;6042;41.326;19.826;2024-01-15T09:09:18;6.93;;;5.30;;
11964;SDS011;6042;41.326;19.826;2024-01-15T09:11:47;7.97;;;5.63;;
11964;SDS011;6042;41.326;19.826;2024-01-15T09:14:16;8.17;;;6.17;;
11964;SDS011;6042;41.326;19.826;2024-01-15T09:17:03;7.10;;;4.73;;
11964;SDS011;6042;41.326;19.826;2024-01-15T09:19:32;8.37;;;4.83;;
11964;SDS011;6042;41.326;19.826;2024-01-15T09:22:03;7.03;;;4.60;;
11964;SDS011;6042;41.326;19.826;2024-01-15T09:24:31;7.53;;;4.40;;
11964;SDS011;6042;41.326;19.826;2024-01-15T09:27:00;4.23;;;3.83;;
11964;SDS011;6042;41.326;19.826;2024-01-15T09:29:29;5.80;;;4.17;;
11964;SDS011;6042;41.326;19.826;2024-01-15T09:31:58;7.70;;;3.60;;
11964;SDS011;6042;41.326;19.826;2024-01-15T09:34:29;3.10;;;2.80;;
11964;SDS011;6042;41.326;19.826;2024-01-15T09:36:58;3.97;;;3.00;;
11964;SDS011;6042;41.326;19.826;2024-01-15T09:39:28;5.67;;;3.13;;
11964;SDS011;6042;41.326;19.826;2024-01-15T09:41:58;3.37;;;2.60;;
11964;SDS011;6042;41.326;19.826;2024-01-15T09:44:27;3.93;;;3.17;;
11964;SDS011;6042;41.326;19.826;2024-01-15T09:46:57;7.13;;;3.90;;
11964;SDS011;6042;41.326;19.826;2024-01-15T09:49:26;2.93;;;2.67;;
11964;SDS011;6042;41.326;19.826;2024-01-15T09:51:57;4.87;;;3.50;;
11964;SDS011;6042;41.326;19.826;2024-01-15T09:54:39;4.97;;;3.53;;
11964;SDS011;6042;41.326;19.826;2024-01-15T09:57:11;4.73;;;3.10;;
11964;SDS011;6042;41.326;19.826;2024-01-15T09:59:40;5.80;;;3.20;;
11964;SDS011;6042;41.326;19.826;2024-01-15T10:02:11;6.90;;;5.60;;
11964;SDS011;6042;41.326;19.826;2024-01-15T10:04:48;10.03;;;7.63;;
11964;SDS011;6042;41.326;19.826;2024-01-15T10:07:16;7.00;;;5.30;;
11964;SDS011;6042;41.326;19.826;2024-01-15T10:09:47;6.80;;;4.30;;
11964;SDS011;6042;41.326;19.826;2024-01-15T10:12:16;4.40;;;3.57;;
11964;SDS011;6042;41.326;19.826;2024-01-15T10:14:44;4.50;;;4.10;;
11964;SDS011;6042;41.326;19.826;2024-01-15T10:17:13;5.60;;;4.07;;
11964;SDS011;6042;41.326;19.826;2024-01-15T10:19:42;4.73;;;3.73;;
11964;SDS011;6042;41.326;19.826;2024-01-15T10:22:15;3.57;;;3.27;;
11964;SDS011;6042;41.326;19.826;2024-01-15T10:24:45;5.33;;;3.67;;
11964;SDS011;6042;41.326;19.826;2024-01-15T10:27:16;6.07;;;3.83;;
11964;SDS011;6042;41.326;19.826;2024-01-15T10:29:45;5.17;;;4.07;;
11964;SDS011;6042;41.326;19.826;2024-01-15T10:32:13;3.63;;;2.97;;
11964;SDS011;6042;41.326;19.826;2024-01-15T10:46:21;4.73;;;3.10;;
11964;SDS011;6042;41.326;19.826;2024-01-15T10:48:51;3.23;;;2.93;;
11964;SDS011;6042;41.326;19.826;2024-01-15T10:51:20;4.33;;;3.80;;
11964;SDS011;6042;41.326;19.826;2024-01-15T10:53:49;6.87;;;4.40;;
11964;SDS011;6042;41.326;19.826;2024-01-15T10:56:18;5.97;;;4.87;;
11964;SDS011;6042;41.326;19.826;2024-01-15T10:58:50;5.00;;;4.50;;
11964;SDS011;6042;41.326;19.826;2024-01-15T11:01:25;6.67;;;5.03;;
11964;SDS011;6042;41.326;19.826;2024-01-15T11:03:56;6.03;;;4.83;;
11964;SDS011;6042;41.326;19.826;2024-01-15T11:06:26;5.03;;;4.20;;
11964;SDS011;6042;41.326;19.826;2024-01-15T11:08:57;6.47;;;4.03;;
11964;SDS011;6042;41.326;19.826;2024-01-15T11:11:31;9.00;;;4.20;;
11964;SDS011;6042;41.326;19.826;2024-01-15T11:14:06;6.30;;;3.90;;
11964;SDS011;6042;41.326;19.826;2024-01-15T11:16:55;6.23;;;3.80;;
11964;SDS011;6042;41.326;19.826;2024-01-15T11:19:28;6.50;;;4.63;;
11964;SDS011;6042;41.326;19.826;2024-01-15T11:22:04;4.93;;;4.27;;
11964;SDS011;6042;41.326;19.826;2024-01-15T11:24:35;4.40;;;3.90;;
11964;SDS011;6042;41.326;19.826;2024-01-15T11:27:05;5.30;;;4.00;;
11964;SDS011;6042;41.326;19.826;2024-01-15T11:29:35;6.60;;;4.20;;
11964;SDS011;6042;41.326;19.826;2024-01-15T11:32:12;5.33;;;4.60;;
11964;SDS011;6042;41.326;19.826;2024-01-15T11:34:58;7.70;;;5.93;;
11964;SDS011;6042;41.326;19.826;2024-01-15T11:40:38;20.50;;;17.60;;
11964;SDS011;6042;41.326;19.826;2024-01-15T11:43:09;9.10;;;7.43;;
11964;SDS011;6042;41.326;19.826;2024-01-15T11:45:39;5.83;;;4.60;;
11964;SDS011;6042;41.326;19.826;2024-01-15T11:48:11;5.30;;;4.00;;
11964;SDS011;6042;41.326;19.826;2024-01-15T11:50:42;6.07;;;4.43;;
11964;SDS011;6042;41.326;19.826;2024-01-15T11:53:21;6.63;;;4.40;;
11964;SDS011;6042;41.326;19.826;2024-01-15T11:56:01;4.47;;;3.40;;
11964;SDS011;6042;41.326;19.826;2024-01-15T11:58:32;5.87;;;4.90;;
11964;SDS011;6042;41.326;19.826;2024-01-15T12:01:04;4.27;;;3.70;;
11964;SDS011;6042;41.326;19.826;2024-01-15T12:03:37;6.10;;;3.70;;
11964;SDS011;6042;41.326;19.826;2024-01-15T12:06:07;8.13;;;3.53;;
11964;SDS011;6042;41.326;19.826;2024-01-15T12:08:37;3.57;;;3.13;;
11964;SDS011;6042;41.326;19.826;2024-01-15T12:11:06;4.37;;;2.90;;
11964;SDS011;6042;41.326;19.826;2024-01-15T12:13:38;3.93;;;2.80;;
11964;SDS011;6042;41.326;19.826;2024-01-15T12:16:07;2.93;;;2.63;;
11964;SDS011;6042;41.326;19.826;2024-01-15T12:30:20;7.70;;;3.30;;
11964;SDS011;6042;41.326;19.826;2024-01-15T12:32:50;4.93;;;3.40;;
11964;SDS011;6042;41.326;19.826;2024-01-15T12:35:19;7.90;;;4.50;;
11964;SDS011;6042;41.326;19.826;2024-01-15T12:37:48;4.30;;;3.87;;
11964;SDS011;6042;41.326;19.826;2024-01-15T12:40:18;4.43;;;4.00;;
11964;SDS011;6042;41.326;19.826;2024-01-15T12:42:48;5.37;;;3.37;;
11964;SDS011;6042;41.326;19.826;2024-01-15T12:45:18;4.57;;;3.70;;
11964;SDS011;6042;41.326;19.826;2024-01-15T12:47:48;4.60;;;4.00;;
11964;SDS011;6042;41.326;19.826;2024-01-15T12:50:18;5.43;;;4.17;;
11964;SDS011;6042;41.326;19.826;2024-01-15T12:52:47;5.80;;;4.77;;
11964;SDS011;6042;41.326;19.826;2024-01-15T12:55:15;4.60;;;4.07;;
11964;SDS011;6042;41.326;19.826;2024-01-15T12:57:45;6.20;;;4.40;;
11964;SDS011;6042;41.326;19.826;2024-01-15T13:00:14;5.70;;;3.43;;
11964;SDS011;6042;41.326;19.826;2024-01-15T13:02:50;5.57;;;4.47;;
11964;SDS011;6042;41.326;19.826;2024-01-15T13:05:19;6.43;;;3.90;;
11964;SDS011;6042;41.326;19.826;2024-01-15T13:07:49;5.07;;;3.57;;
11964;SDS011;6042;41.326;19.826;2024-01-15T13:10:18;4.33;;;3.93;;
11964;SDS011;6042;41.326;19.826;2024-01-15T13:12:48;4.27;;;3.80;;
11964;SDS011;6042;41.326;19.826;2024-01-15T13:15:17;3.87;;;3.43;;
11964;SDS011;6042;41.326;19.826;2024-01-15T13:17:45;4.37;;;3.63;;
11964;SDS011;6042;41.326;19.826;2024-01-15T13:20:16;4.80;;;4.10;;
11964;SDS011;6042;41.326;19.826;2024-01-15T13:22:44;7.80;;;6.13;;
11964;SDS011;6042;41.326;19.826;2024-01-15T13:25:13;6.53;;;5.70;;
11964;SDS011;6042;41.326;19.826;2024-01-15T13:27:43;8.00;;;5.63;;
11964;SDS011;6042;41.326;19.826;2024-01-15T13:30:12;7.10;;;5.80;;
11964;SDS011;6042;41.326;19.826;2024-01-15T13:32:42;8.63;;;7.10;;
11964;SDS011;6042;41.326;19.826;2024-01-15T13:35:11;6.83;;;6.00;;
11964;SDS011;6042;41.326;19.826;2024-01-15T13:37:41;7.53;;;5.83;;
11964;SDS011;6042;41.326;19.826;2024-01-15T13:40:10;8.90;;;7.23;;
11964;SDS011;6042;41.326;19.826;2024-01-15T13:42:44;9.90;;;7.90;;
11964;SDS011;6042;41.326;19.826;2024-01-15T13:45:18;9.17;;;7.80;;
11964;SDS011;6042;41.326;19.826;2024-01-15T13:47:48;12.27;;;8.40;;
11964;SDS011;6042;41.326;19.826;2024-01-15T13:50:16;12.33;;;8.27;;
11964;SDS011;6042;41.326;19.826;2024-01-15T13:52:46;9.20;;;8.23;;
11964;SDS011;6042;41.326;19.826;2024-01-15T13:55:14;7.97;;;6.33;;
11964;SDS011;6042;41.326;19.826;2024-01-15T13:57:43;7.83;;;5.87;;
11964;SDS011;6042;41.326;19.826;2024-01-15T14:00:13;8.00;;;5.70;;
11964;SDS011;6042;41.326;19.826;2024-01-15T14:02:47;8.37;;;5.80;;
11964;SDS011;6042;41.326;19.826;2024-01-15T14:05:18;7.70;;;6.90;;
11964;SDS011;6042;41.326;19.826;2024-01-15T14:07:48;12.87;;;8.70;;
11964;SDS011;6042;41.326;19.826;2024-01-15T14:10:17;12.57;;;8.97;;
11964;SDS011;6042;41.326;19.826;2024-01-15T14:12:45;11.27;;;8.10;;
11964;SDS011;6042;41.326;19.826;2024-01-15T14:15:14;9.00;;;8.10;;
11964;SDS011;6042;41.326;19.826;2024-01-15T14:17:43;8.20;;;7.40;;
11964;SDS011;6042;41.326;19.826;2024-01-15T14:20:12;9.77;;;7.80;;
11964;SDS011;6042;41.326;19.826;2024-01-15T14:23:03;9.00;;;6.30;;
11964;SDS011;6042;41.326;19.826;2024-01-15T14:25:31;8.23;;;5.90;;
11964;SDS011;6042;41.326;19.826;2024-01-15T14:28:00;4.90;;;4.40;;
11964;SDS011;6042;41.326;19.826;2024-01-15T14:30:28;7.20;;;5.10;;
11964;SDS011;6042;41.326;19.826;2024-01-15T14:32:57;5.53;;;4.80;;
11964;SDS011;6042;41.326;19.826;2024-01-15T14:35:25;5.20;;;4.30;;
11964;SDS011;6042;41.326;19.826;2024-01-15T14:37:54;6.13;;;4.30;;
11964;SDS011;6042;41.326;19.826;2024-01-15T14:40:27;7.93;;;5.00;;
11964;SDS011;6042;41.326;19.826;2024-01-15T14:42:56;8.53;;;6.13;;
11964;SDS011;6042;41.326;19.826;2024-01-15T14:45:25;11.93;;;7.77;;
11964;SDS011;6042;41.326;19.826;2024-01-15T14:47:54;13.57;;;7.47;;
11964;SDS011;6042;41.326;19.826;2024-01-15T14:50:23;12.47;;;8.70;;
11964;SDS011;6042;41.326;19.826;2024-01-15T14:52:52;13.67;;;8.73;;
11964;SDS011;6042;41.326;19.826;2024-01-15T14:55:24;10.87;;;7.87;;
11964;SDS011;6042;41.326;19.826;2024-01-15T14:57:54;12.23;;;8.73;;
11964;SDS011;6042;41.326;19.826;2024-01-15T15:00:23;9.70;;;7.10;;
11964;SDS011;6042;41.326;19.826;2024-01-15T15:02:52;11.73;;;6.70;;
11964;SDS011;6042;41.326;19.826;2024-01-15T15:05:20;11.23;;;6.30;;
11964;SDS011;6042;41.326;19.826;2024-01-15T15:07:48;8.93;;;6.90;;
11964;SDS011;6042;41.326;19.826;2024-01-15T15:10:17;5.83;;;4.33;;
11964;SDS011;6042;41.326;19.826;2024-01-15T15:12:47;5.57;;;3.60;;
11964;SDS011;6042;41.326;19.826;2024-01-15T15:15:16;5.07;;;4.00;;
11964;SDS011;6042;41.326;19.826;2024-01-15T15:17:49;5.60;;;4.40;;
11964;SDS011;6042;41.326;19.826;2024-01-15T15:20:17;6.87;;;4.30;;
11964;SDS011;6042;41.326;19.826;2024-01-15T15:22:53;6.93;;;4.60;;
11964;SDS011;6042;41.326;19.826;2024-01-15T15:25:26;6.50;;;4.20;;
11964;SDS011;6042;41.326;19.826;2024-01-15T15:27:57;4.80;;;3.90;;